createdAt,value
2023-03-23T15:58:16.829Z,11.70
2023-03-23T16:00:45.824Z,11.20
2023-03-23T16:03:27.811Z,11.30
2023-03-23T16:06:00.390Z,10.50
2023-03-23T16:08:29.079Z,12.00
2023-03-23T16:11:00.427Z,13.40
2023-03-23T16:13:29.317Z,12.50
2023-03-23T16:15:58.234Z,12.10
2023-03-23T16:18:31.908Z,10.70
2023-03-23T16:21:01.520Z,12.70
2023-03-23T16:23:30.304Z,13.50
2023-03-23T16:26:01.348Z,13.70
2023-03-23T16:28:30.856Z,13.30
2023-03-23T16:30:59.351Z,13.40
2023-03-23T16:33:28.436Z,12.50
2023-03-23T16:35:59.596Z,11.80
2023-03-23T16:38:28.456Z,15.70
2023-03-23T16:40:57.661Z,23.50
2023-03-23T16:43:26.455Z,16.90
2023-03-23T16:45:56.292Z,15.80
2023-03-23T16:48:26.885Z,18.70
2023-03-23T16:51:02.328Z,19.30
2023-03-23T16:53:31.220Z,18.40
2023-03-23T16:56:00.142Z,18.60
2023-03-23T16:58:29.110Z,22.00
2023-03-23T17:00:58.299Z,20.70
2023-03-23T17:03:27.473Z,19.50
2023-03-23T17:05:56.594Z,20.60
2023-03-23T17:08:26.150Z,23.20
2023-03-23T17:10:59.391Z,25.90
2023-03-23T17:13:28.596Z,23.80
2023-03-23T17:15:57.636Z,22.80
2023-03-23T17:18:29.440Z,23.20
2023-03-23T17:20:58.755Z,21.60
2023-03-23T17:23:27.327Z,20.50
2023-03-23T17:25:56.767Z,20.80
2023-03-23T17:28:26.158Z,20.20
2023-03-23T17:30:58.855Z,21.20
2023-03-23T17:33:29.748Z,24.10
2023-03-23T17:35:58.694Z,25.80
2023-03-23T17:38:47.938Z,28.60
2023-03-23T17:41:17.236Z,31.80
2023-03-23T17:47:54.285Z,28.90
2023-03-23T17:50:28.639Z,30.80
2023-03-23T17:52:58.346Z,33.90
2023-03-23T17:55:26.929Z,29.50
2023-03-23T17:57:56.926Z,31.50
2023-03-23T18:00:26.729Z,30.70
2023-03-23T18:02:57.085Z,29.40
2023-03-23T18:05:28.230Z,28.40
2023-03-23T18:07:57.218Z,30.20
2023-03-23T18:10:26.513Z,31.20
2023-03-23T18:12:55.831Z,31.60
2023-03-23T18:15:42.606Z,32.10
2023-03-23T18:18:13.266Z,33.80
2023-03-23T18:20:42.761Z,53.70
2023-03-23T18:23:13.968Z,45.30
2023-03-23T18:25:42.914Z,78.50
2023-03-23T18:28:12.542Z,67.40
2023-03-23T18:30:49.515Z,59.50
2023-03-23T18:33:20.964Z,49.10
2023-03-23T18:35:56.393Z,48.20
2023-03-23T18:38:25.777Z,48.60
2023-03-23T18:40:57.170Z,53.40
2023-03-23T18:43:26.739Z,58.30
2023-03-23T18:45:58.852Z,91.30
2023-03-23T18:48:28.675Z,89.90
2023-03-23T18:51:00.097Z,46.60
2023-03-23T18:53:30.491Z,44.30
2023-03-23T18:56:09.873Z,47.30
2023-03-23T18:58:39.547Z,45.80
2023-03-23T19:01:10.831Z,45.60
2023-03-23T19:03:40.828Z,45.00
2023-03-23T19:06:16.340Z,44.80
2023-03-23T19:08:46.480Z,46.00
2023-03-23T19:11:16.005Z,46.90
2023-03-23T19:13:54.298Z,46.20
2023-03-23T19:16:31.782Z,45.20
2023-03-23T19:19:02.225Z,47.20
2023-03-23T19:21:33.358Z,47.50
2023-03-23T19:24:05.763Z,50.70
2023-03-23T19:26:38.545Z,53.90
2023-03-23T19:29:26.280Z,53.20
2023-03-23T19:32:02.193Z,53.30
2023-03-23T19:34:32.619Z,53.10
2023-03-23T19:37:06.086Z,52.70
2023-03-23T19:47:16.372Z,46.60
2023-03-23T19:49:46.961Z,40.90
2023-03-23T19:52:18.252Z,45.80
2023-03-23T19:54:47.813Z,48.00
2023-03-23T19:57:17.803Z,46.90
2023-03-23T19:59:46.854Z,47.30
2023-03-23T20:02:15.734Z,45.90
2023-03-23T20:04:49.843Z,47.80
2023-03-23T20:07:21.462Z,47.00
2023-03-23T20:09:50.570Z,46.10
2023-03-23T20:12:23.915Z,46.60
2023-03-23T20:14:53.468Z,45.40
2023-03-23T20:18:15.520Z,44.70
2023-03-23T20:20:50.103Z,42.80
2023-03-23T20:23:22.897Z,45.00
2023-03-23T20:25:52.382Z,45.90
2023-03-23T20:28:23.558Z,44.60
2023-03-23T20:31:19.283Z,45.10
2023-03-23T20:34:00.217Z,42.90
2023-03-23T20:36:37.118Z,46.50
2023-03-23T20:39:12.220Z,49.10
2023-03-23T20:41:42.167Z,47.40
2023-03-23T20:44:14.347Z,46.20
2023-03-23T20:46:47.900Z,46.40
2023-03-23T20:49:20.431Z,45.50
2023-03-23T20:51:56.280Z,44.10
2023-03-23T20:54:27.113Z,42.70
2023-03-23T20:56:57.955Z,42.70
2023-03-23T20:59:26.431Z,45.00
2023-03-23T21:01:55.766Z,72.90
2023-03-23T21:04:27.728Z,70.50
2023-03-23T21:06:57.305Z,60.80
2023-03-23T21:09:25.938Z,48.80
2023-03-23T21:11:59.307Z,47.40
2023-03-23T21:14:28.682Z,46.60
2023-03-23T21:16:58.701Z,43.30
2023-03-23T21:19:29.955Z,45.30
2023-03-23T21:24:30.394Z,38.60
2023-03-23T21:27:08.797Z,35.20
2023-03-23T21:29:38.952Z,34.00
2023-03-23T21:32:08.857Z,38.10
2023-03-23T21:34:37.884Z,42.40
2023-03-23T21:37:07.126Z,40.50
2023-03-23T21:42:07.168Z,38.00
2023-03-23T21:44:36.061Z,37.30
2023-03-23T21:47:06.778Z,35.90
2023-03-23T21:49:40.822Z,34.80
2023-03-23T21:52:10.192Z,35.90
2023-03-23T21:54:41.538Z,34.40
2023-03-23T21:57:10.171Z,32.10
2023-03-23T21:59:43.727Z,28.20
2023-03-23T22:02:13.644Z,31.60
2023-03-23T22:04:42.136Z,32.80
2023-03-23T22:07:15.626Z,30.90
2023-03-23T22:12:15.136Z,30.20
2023-03-23T22:14:44.029Z,30.90
2023-03-23T22:17:12.915Z,33.70
2023-03-23T22:19:42.731Z,31.20
2023-03-23T22:22:11.621Z,28.60
2023-03-23T22:24:40.817Z,26.10
2023-03-23T22:27:10.426Z,27.90
2023-03-23T22:29:39.123Z,31.70
2023-03-23T22:32:09.752Z,29.80
2023-03-23T22:34:38.740Z,30.80
2023-03-23T22:37:10.396Z,32.30
2023-03-23T22:39:39.313Z,32.30
2023-03-23T22:42:10.225Z,30.40
2023-03-23T22:44:41.166Z,30.70
2023-03-23T22:47:09.748Z,27.70
2023-03-23T22:49:39.365Z,29.10
2023-03-23T22:52:08.079Z,38.50
2023-03-23T22:54:41.540Z,30.50
2023-03-23T22:57:11.348Z,31.00
2023-03-23T22:59:41.167Z,29.60
2023-03-23T23:02:09.749Z,30.20
2023-03-23T23:04:38.638Z,32.00
2023-03-23T23:07:12.989Z,30.80
2023-03-23T23:09:56.183Z,30.20
2023-03-23T23:12:26.000Z,40.50
2023-03-23T23:15:34.922Z,37.30
2023-03-23T23:18:05.269Z,31.00
2023-03-23T23:20:34.243Z,30.80
2023-03-23T23:23:06.412Z,32.40
2023-03-23T23:25:36.119Z,32.50
2023-03-23T23:28:09.307Z,33.80
2023-03-23T23:30:38.715Z,107.90
2023-03-23T23:33:09.520Z,56.00
2023-03-23T23:36:05.641Z,49.50
2023-03-23T23:38:34.897Z,41.00
2023-03-23T23:41:07.867Z,47.50
2023-03-23T23:43:38.599Z,44.20
2023-03-23T23:46:07.730Z,38.60
2023-03-23T23:48:38.526Z,34.60
2023-03-23T23:51:08.137Z,36.20
2023-03-23T23:53:37.234Z,36.30
2023-03-23T23:56:08.168Z,36.00
2023-03-23T23:58:37.568Z,31.80
